createdAt,value
2019-03-20T00:03:19.694Z,83.77
2019-03-20T00:07:25.136Z,83.82
2019-03-20T00:11:30.777Z,83.92
2019-03-20T00:15:36.125Z,84.40
2019-03-20T00:19:41.504Z,84.44
2019-03-20T00:23:47.551Z,84.03
2019-03-20T00:27:53.318Z,83.82
2019-03-20T00:31:58.668Z,84.61
2019-03-20T00:36:04.138Z,84.22
2019-03-20T00:40:11.293Z,84.17
2019-03-20T00:44:16.628Z,84.72
2019-03-20T00:48:22.036Z,84.99
2019-03-20T00:52:27.322Z,85.21
2019-03-20T00:56:32.754Z,85.62
2019-03-20T01:00:38.152Z,84.67
2019-03-20T01:04:43.436Z,85.51
2019-03-20T01:08:48.711Z,85.55
2019-03-20T01:12:54.432Z,86.21
2019-03-20T01:16:59.696Z,85.58
2019-03-20T01:21:05.214Z,85.42
2019-03-20T01:25:11.466Z,85.52
2019-03-20T01:29:16.868Z,85.84
2019-03-20T01:33:22.519Z,86.09
2019-03-20T01:37:27.944Z,86.24
2019-03-20T01:41:38.092Z,85.70
2019-03-20T01:45:40.665Z,87.04
2019-03-20T01:49:45.997Z,86.67
2019-03-20T01:53:51.380Z,86.60
2019-03-20T01:57:56.858Z,85.66
2019-03-20T02:02:02.376Z,86.42
2019-03-20T02:06:07.838Z,86.82
2019-03-20T02:10:13.958Z,85.86
2019-03-20T02:14:19.384Z,86.08
2019-03-20T02:18:24.771Z,86.49
2019-03-20T02:22:30.521Z,86.42
2019-03-20T02:26:36.310Z,86.88
2019-03-20T02:30:41.760Z,86.34
2019-03-20T02:34:47.086Z,86.96
2019-03-20T02:38:52.558Z,86.81
2019-03-20T02:42:58.035Z,86.54
2019-03-20T02:47:04.234Z,86.95
2019-03-20T02:51:09.691Z,87.39
2019-03-20T02:55:15.386Z,86.76
2019-03-20T02:59:20.823Z,87.50
2019-03-20T03:03:26.293Z,87.23
2019-03-20T03:07:32.002Z,87.22
2019-03-20T03:11:37.488Z,87.70
2019-03-20T03:15:42.926Z,88.00
2019-03-20T03:19:48.367Z,87.95
2019-03-20T03:23:53.921Z,87.67
2019-03-20T03:27:59.394Z,87.86
2019-03-20T03:32:04.840Z,88.19
2019-03-20T03:36:20.568Z,88.39
2019-03-20T03:40:17.751Z,88.56
2019-03-20T03:44:23.180Z,88.55
2019-03-20T03:48:28.547Z,88.83
2019-03-20T03:52:34.251Z,89.09
2019-03-20T03:56:39.710Z,89.61
2019-03-20T04:00:45.156Z,89.54
2019-03-20T04:04:50.533Z,89.35
2019-03-20T04:08:56.066Z,89.65
2019-03-20T04:13:01.418Z,89.40
2019-03-20T04:17:29.020Z,89.74
2019-03-20T04:21:34.457Z,89.83
2019-03-20T04:25:40.187Z,89.65
2019-03-20T04:29:45.942Z,89.66
2019-03-20T04:33:51.377Z,89.57
2019-03-20T04:37:56.730Z,89.21
2019-03-20T04:42:02.341Z,89.20
2019-03-20T04:46:07.622Z,89.02
2019-03-20T04:50:13.061Z,89.10
2019-03-20T04:54:18.788Z,88.72
2019-03-20T04:58:24.267Z,88.30
2019-03-20T05:02:29.677Z,88.05
2019-03-20T05:06:35.775Z,87.60
2019-03-20T05:10:41.210Z,87.64
2019-03-20T05:14:47.298Z,86.21
2019-03-20T05:18:52.708Z,86.22
2019-03-20T05:22:58.120Z,86.17
2019-03-20T05:27:03.551Z,86.04
2019-03-20T05:31:08.978Z,85.81
2019-03-20T05:35:14.777Z,85.33
2019-03-20T05:39:21.233Z,84.70
2019-03-20T05:43:26.670Z,85.36
2019-03-20T05:47:32.051Z,85.16
2019-03-20T05:51:37.506Z,84.63
2019-03-20T05:55:42.976Z,84.36
2019-03-20T05:59:48.339Z,84.77
2019-03-20T06:03:53.673Z,83.76
2019-03-20T06:07:59.403Z,83.67
2019-03-20T06:12:04.860Z,83.39
2019-03-20T06:16:10.336Z,83.93
2019-03-20T06:20:15.873Z,83.57
2019-03-20T06:24:21.342Z,83.27
2019-03-20T06:28:26.907Z,83.14
2019-03-20T06:32:32.202Z,83.10
2019-03-20T06:36:37.651Z,82.63
2019-03-20T06:40:43.077Z,82.17
2019-03-20T06:44:48.864Z,82.03
2019-03-20T06:48:54.216Z,81.53
2019-03-20T06:52:59.709Z,81.60
2019-03-20T06:57:05.129Z,81.32
2019-03-20T07:01:29.571Z,80.33
2019-03-20T07:06:22.753Z,80.76
2019-03-20T07:11:05.135Z,81.00
2019-03-20T07:15:11.008Z,79.68
2019-03-20T07:19:16.656Z,78.56
2019-03-20T07:23:22.751Z,78.35
2019-03-20T07:27:28.157Z,78.19
2019-03-20T07:31:33.856Z,77.69
2019-03-20T07:35:39.147Z,77.82
2019-03-20T07:39:44.942Z,77.05
2019-03-20T07:43:50.410Z,76.56
2019-03-20T07:47:55.850Z,74.86
2019-03-20T07:52:01.581Z,74.66
2019-03-20T07:56:07.026Z,73.76
2019-03-20T08:00:14.605Z,74.47
2019-03-20T08:04:20.438Z,72.30
2019-03-20T08:08:25.879Z,72.85
2019-03-20T08:12:31.333Z,71.78
2019-03-20T08:16:36.719Z,72.68
2019-03-20T08:20:42.425Z,69.30
2019-03-20T08:24:47.847Z,70.06
2019-03-20T08:28:53.344Z,68.54
2019-03-20T08:32:58.689Z,69.32
2019-03-20T08:37:04.135Z,67.31
2019-03-20T08:41:09.562Z,64.81
2019-03-20T08:45:15.142Z,65.51
2019-03-20T08:49:20.819Z,64.56
2019-03-20T08:53:26.596Z,65.16
2019-03-20T08:57:32.028Z,65.36
2019-03-20T09:01:37.505Z,64.91
2019-03-20T09:05:42.997Z,65.02
2019-03-20T09:09:50.759Z,64.86
2019-03-20T09:13:55.697Z,64.38
2019-03-20T09:18:01.190Z,62.88
2019-03-20T09:22:06.603Z,63.54
2019-03-20T09:26:12.057Z,63.44
2019-03-20T09:30:20.226Z,62.73
2019-03-20T09:34:25.693Z,63.01
2019-03-20T09:38:30.931Z,63.21
2019-03-20T09:42:36.952Z,62.19
2019-03-20T09:46:42.411Z,62.73
2019-03-20T09:50:48.128Z,63.95
2019-03-20T09:54:53.579Z,61.47
2019-03-20T09:58:58.993Z,62.23
2019-03-20T10:03:04.795Z,61.20
2019-03-20T10:07:10.209Z,62.02
2019-03-20T10:11:15.788Z,61.41
2019-03-20T10:15:21.283Z,62.23
2019-03-20T10:19:27.101Z,61.08
2019-03-20T10:23:32.455Z,61.84
2019-03-20T10:27:37.907Z,61.47
2019-03-20T10:31:43.187Z,61.12
2019-03-20T10:35:50.533Z,62.26
2019-03-20T10:39:55.659Z,60.93
2019-03-20T10:44:01.778Z,61.44
2019-03-20T10:48:07.538Z,59.91
2019-03-20T10:52:13.055Z,60.96
2019-03-20T10:56:18.474Z,59.87
2019-03-20T11:00:24.073Z,60.50
2019-03-20T11:04:30.401Z,59.67
2019-03-20T11:08:35.847Z,59.31
2019-03-20T11:12:41.303Z,58.27
2019-03-20T11:16:46.796Z,56.82
2019-03-20T11:20:53.627Z,55.93
2019-03-20T11:24:59.538Z,58.72
2019-03-20T11:29:05.137Z,55.32
2019-03-20T11:33:10.546Z,55.62
2019-03-20T11:37:16.353Z,54.05
2019-03-20T11:41:21.730Z,54.58
2019-03-20T11:45:27.475Z,55.25
2019-03-20T11:49:33.883Z,53.92
2019-03-20T11:53:39.410Z,52.22
2019-03-20T11:57:44.859Z,52.32
2019-03-20T12:01:50.332Z,53.54
2019-03-20T12:05:55.776Z,52.65
2019-03-20T12:10:01.234Z,52.69
2019-03-20T12:14:06.815Z,52.88
2019-03-20T12:18:12.312Z,51.15
2019-03-20T12:22:17.770Z,52.08
2019-03-20T12:26:23.214Z,52.05
2019-03-20T12:30:29.722Z,53.20
2019-03-20T12:34:35.526Z,53.38
2019-03-20T12:38:42.171Z,52.38
2019-03-20T12:42:47.619Z,53.10
2019-03-20T12:46:53.052Z,52.77
2019-03-20T12:50:58.856Z,52.12
2019-03-20T12:55:04.423Z,52.32
2019-03-20T12:59:10.474Z,52.55
2019-03-20T13:03:16.189Z,53.91
2019-03-20T13:07:21.631Z,54.03
2019-03-20T13:11:27.166Z,54.09
2019-03-20T13:15:33.644Z,53.38
2019-03-20T13:19:39.096Z,53.80
2019-03-20T13:23:44.543Z,52.23
2019-03-20T13:27:49.961Z,53.75
2019-03-20T13:31:55.420Z,52.10
2019-03-20T13:36:00.869Z,53.33
2019-03-20T13:40:14.477Z,53.51
2019-03-20T13:44:13.940Z,52.36
2019-03-20T13:48:19.917Z,54.27
2019-03-20T13:52:25.352Z,53.71
2019-03-20T13:56:30.806Z,54.28
2019-03-20T14:00:36.135Z,52.60
2019-03-20T14:04:42.799Z,52.95
2019-03-20T14:08:48.245Z,54.12
2019-03-20T14:12:53.726Z,54.07
2019-03-20T14:16:59.156Z,52.88
2019-03-20T14:21:04.693Z,54.51
2019-03-20T14:25:10.700Z,53.36
2019-03-20T14:29:16.265Z,53.46
2019-03-20T14:33:22.108Z,53.96
2019-03-20T14:37:27.920Z,53.08
2019-03-20T14:41:33.322Z,54.80
2019-03-20T14:45:39.084Z,54.24
2019-03-20T14:49:44.615Z,55.37
2019-03-20T14:53:50.304Z,56.64
2019-03-20T14:57:55.760Z,57.49
2019-03-20T15:02:01.174Z,57.15
2019-03-20T15:06:06.698Z,57.94
2019-03-20T15:10:15.152Z,58.45
2019-03-20T15:14:20.579Z,59.12
2019-03-20T15:18:25.943Z,57.92
2019-03-20T15:22:31.755Z,57.42
2019-03-20T15:26:37.207Z,58.44
2019-03-20T15:30:42.704Z,58.13
2019-03-20T15:34:48.079Z,58.36
2019-03-20T15:38:53.570Z,59.29
2019-03-20T15:42:59.015Z,58.16
2019-03-20T15:47:04.484Z,59.03
2019-03-20T15:51:10.283Z,59.32
2019-03-20T15:55:20.175Z,58.62
2019-03-20T15:59:26.132Z,59.07
2019-03-20T16:03:32.125Z,58.54
2019-03-20T16:07:37.949Z,58.11
2019-03-20T16:11:43.523Z,58.10
2019-03-20T16:15:49.460Z,58.92
2019-03-20T16:19:54.933Z,59.12
2019-03-20T16:24:00.384Z,59.58
2019-03-20T16:28:06.303Z,58.49
2019-03-20T16:32:11.823Z,59.55
2019-03-20T16:36:17.268Z,60.36
2019-03-20T16:40:24.719Z,58.66
2019-03-20T16:44:33.124Z,58.66
2019-03-20T16:48:38.489Z,59.69
2019-03-20T16:52:43.937Z,60.51
2019-03-20T16:56:49.462Z,59.23
2019-03-20T17:00:55.194Z,58.83
2019-03-20T17:05:00.577Z,59.87
2019-03-20T17:09:08.393Z,59.31
2019-03-20T17:13:14.206Z,59.00
2019-03-20T17:17:21.578Z,60.47
2019-03-20T17:21:26.763Z,60.07
2019-03-20T17:25:32.362Z,61.06
2019-03-20T17:29:37.786Z,60.86
2019-03-20T17:33:43.149Z,61.40
2019-03-20T17:37:48.603Z,62.04
2019-03-20T17:41:54.345Z,63.34
2019-03-20T17:45:59.874Z,63.08
2019-03-20T17:50:07.119Z,63.67
2019-03-20T17:54:12.755Z,65.49
2019-03-20T17:58:18.190Z,66.08
2019-03-20T18:02:24.495Z,65.47
2019-03-20T18:06:30.058Z,66.27
2019-03-20T18:10:35.659Z,66.04
2019-03-20T18:14:41.074Z,66.64
2019-03-20T18:18:46.510Z,66.32
2019-03-20T18:22:51.955Z,66.44
2019-03-20T18:26:57.851Z,67.46
2019-03-20T18:31:03.292Z,67.92
2019-03-20T18:35:08.812Z,67.62
2019-03-20T18:39:14.179Z,68.37
2019-03-20T18:43:19.607Z,69.85
2019-03-20T18:47:24.978Z,70.19
2019-03-20T18:51:30.827Z,69.22
2019-03-20T18:55:36.527Z,68.95
2019-03-20T18:59:42.564Z,69.65
2019-03-20T19:03:48.408Z,69.82
2019-03-20T19:07:53.882Z,69.87
2019-03-20T19:12:08.150Z,69.88
2019-03-20T19:16:07.151Z,71.00
2019-03-20T19:20:12.809Z,72.00
2019-03-20T19:24:18.299Z,73.01
2019-03-20T19:28:24.067Z,71.50
2019-03-20T19:32:29.882Z,71.91
2019-03-20T19:36:35.224Z,73.76
2019-03-20T19:40:40.778Z,73.11
2019-03-20T19:44:46.132Z,72.20
2019-03-20T19:48:51.716Z,72.06
2019-03-20T19:52:57.241Z,74.19
2019-03-20T19:57:03.082Z,73.30
2019-03-20T20:01:08.875Z,75.07
2019-03-20T20:05:16.420Z,73.66
2019-03-20T20:09:22.081Z,75.69
2019-03-20T20:13:27.849Z,75.34
2019-03-20T20:17:36.397Z,74.77
2019-03-20T20:21:41.857Z,76.91
2019-03-20T20:25:47.667Z,76.85
2019-03-20T20:29:53.149Z,77.17
2019-03-20T20:33:58.639Z,76.77
2019-03-20T20:38:04.086Z,75.95
2019-03-20T20:42:09.502Z,76.25
2019-03-20T20:46:15.368Z,77.74
2019-03-20T20:50:24.499Z,76.11
2019-03-20T20:54:30.064Z,77.52
2019-03-20T20:58:35.559Z,77.45
2019-03-20T21:02:40.951Z,77.56
2019-03-20T21:06:46.497Z,79.30
2019-03-20T21:10:52.319Z,79.29
2019-03-20T21:14:57.828Z,79.88
2019-03-20T21:19:39.732Z,79.93
2019-03-20T21:24:28.286Z,79.92
2019-03-20T21:29:44.631Z,79.90
2019-03-20T21:34:45.514Z,81.11
2019-03-20T21:38:51.858Z,80.38
2019-03-20T21:44:01.391Z,81.54
2019-03-20T21:48:08.050Z,80.74
2019-03-20T21:52:14.283Z,81.60
2019-03-20T21:56:36.913Z,80.67
2019-03-20T22:01:32.174Z,81.62
2019-03-20T22:06:42.885Z,81.63
2019-03-20T22:11:44.145Z,80.58
2019-03-20T22:16:46.810Z,80.79
2019-03-20T22:21:35.830Z,80.15
2019-03-20T22:26:20.669Z,83.20
2019-03-20T22:30:26.920Z,82.20
2019-03-20T22:35:12.874Z,82.17
2019-03-20T22:40:36.638Z,82.02
2019-03-20T22:45:16.563Z,82.66
2019-03-20T22:50:36.483Z,82.28
2019-03-20T22:55:26.909Z,83.46
2019-03-20T22:59:33.165Z,84.34
2019-03-20T23:03:45.225Z,85.16
2019-03-20T23:07:51.487Z,83.89
2019-03-20T23:11:59.176Z,83.82
2019-03-20T23:16:06.513Z,84.30
2019-03-20T23:20:16.423Z,83.56
2019-03-20T23:24:22.459Z,83.95
2019-03-20T23:28:28.554Z,84.17
2019-03-20T23:32:34.785Z,83.78
2019-03-20T23:36:40.887Z,84.32
2019-03-20T23:40:47.033Z,85.71
2019-03-20T23:44:53.126Z,84.63
2019-03-20T23:49:10.703Z,84.13
2019-03-20T23:53:16.851Z,83.93
2019-03-20T23:57:23.250Z,84.15
